sensor_id;sensor_type;location;lat;lon;timestamp;pressure;altitude;pressure_sealevel;temperature;humidity
13420;BME280;6781;58.440;15.470;2023-01-15T00:01:18;100065.47;;;3.08;100.00
13420;BME280;6781;58.440;15.470;2023-01-15T00:03:47;100065.31;;;3.11;100.00
13420;BME280;6781;58.440;15.470;2023-01-15T00:06:14;100061.00;;;3.11;100.00
13420;BME280;6781;58.440;15.470;2023-01-15T00:08:41;100049.09;;;3.10;100.00
13420;BME280;6781;58.440;15.470;2023-01-15T00:11:08;100038.31;;;3.05;100.00
13420;BME280;6781;58.440;15.470;2023-01-15T00:13:34;100031.34;;;3.07;100.00
13420;BME280;6781;58.440;15.470;2023-01-15T00:16:02;100033.75;;;3.10;100.00
13420;BME280;6781;58.440;15.470;2023-01-15T00:18:29;100015.06;;;3.08;100.00
13420;BME280;6781;58.440;15.470;2023-01-15T00:21:00;100021.66;;;3.12;100.00
13420;BME280;6781;58.440;15.470;2023-01-15T00:23:27;100016.81;;;3.08;100.00
13420;BME280;6781;58.440;15.470;2023-01-15T00:26:12;100013.59;;;3.04;100.00
13420;BME280;6781;58.440;15.470;2023-01-15T00:28:56;99992.75;;;3.10;100.00
13420;BME280;6781;58.440;15.470;2023-01-15T00:31:23;99983.34;;;3.11;100.00
13420;BME280;6781;58.440;15.470;2023-01-15T00:33:49;99979.22;;;3.08;100.00
13420;BME280;6781;58.440;15.470;2023-01-15T00:36:18;99984.72;;;3.16;100.00
13420;BME280;6781;58.440;15.470;2023-01-15T00:38:44;99979.03;;;3.11;100.00
13420;BME280;6781;58.440;15.470;2023-01-15T00:41:11;99995.31;;;3.10;100.00
13420;BME280;6781;58.440;15.470;2023-01-15T00:43:38;99963.19;;;3.05;100.00
13420;BME280;6781;58.440;15.470;2023-01-15T00:46:05;99968.97;;;3.08;100.00
13420;BME280;6781;58.440;15.470;2023-01-15T00:48:32;99955.44;;;3.06;100.00
13420;BME280;6781;58.440;15.470;2023-01-15T00:50:59;99957.25;;;3.04;100.00
13420;BME280;6781;58.440;15.470;2023-01-15T00:53:27;99956.16;;;3.08;100.00
13420;BME280;6781;58.440;15.470;2023-01-15T00:55:54;99946.09;;;3.05;100.00
13420;BME280;6781;58.440;15.470;2023-01-15T00:58:21;99945.75;;;3.11;100.00
13420;BME280;6781;58.440;15.470;2023-01-15T01:00:51;99948.47;;;3.08;100.00
13420;BME280;6781;58.440;15.470;2023-01-15T01:03:18;99931.56;;;3.06;100.00
13420;BME280;6781;58.440;15.470;2023-01-15T01:05:45;99937.22;;;3.11;100.00
13420;BME280;6781;58.440;15.470;2023-01-15T01:08:12;99921.03;;;3.10;100.00
13420;BME280;6781;58.440;15.470;2023-01-15T01:10:40;99925.16;;;3.13;100.00
13420;BME280;6781;58.440;15.470;2023-01-15T01:13:08;99923.25;;;3.16;100.00
13420;BME280;6781;58.440;15.470;2023-01-15T01:15:35;99911.44;;;3.14;100.00
13420;BME280;6781;58.440;15.470;2023-01-15T01:18:02;99901.47;;;3.09;100.00
13420;BME280;6781;58.440;15.470;2023-01-15T01:20:30;99898.00;;;3.10;100.00
13420;BME280;6781;58.440;15.470;2023-01-15T01:22:56;99879.06;;;3.13;100.00
13420;BME280;6781;58.440;15.470;2023-01-15T01:25:24;99888.66;;;3.09;100.00
13420;BME280;6781;58.440;15.470;2023-01-15T01:27:54;99881.72;;;3.11;100.00
13420;BME280;6781;58.440;15.470;2023-01-15T01:30:20;99869.81;;;3.10;100.00
13420;BME280;6781;58.440;15.470;2023-01-15T01:32:47;99859.38;;;3.13;100.00
13420;BME280;6781;58.440;15.470;2023-01-15T01:35:14;99872.94;;;3.15;100.00
13420;BME280;6781;58.440;15.470;2023-01-15T01:37:41;99854.72;;;3.20;100.00
13420;BME280;6781;58.440;15.470;2023-01-15T01:40:10;99861.59;;;3.19;100.00
13420;BME280;6781;58.440;15.470;2023-01-15T01:42:37;99864.06;;;3.21;100.00
13420;BME280;6781;58.440;15.470;2023-01-15T01:45:20;99851.88;;;3.24;100.00
13420;BME280;6781;58.440;15.470;2023-01-15T01:47:49;99862.13;;;3.24;100.00
13420;BME280;6781;58.440;15.470;2023-01-15T01:50:17;99855.16;;;3.26;100.00
13420;BME280;6781;58.440;15.470;2023-01-15T01:52:45;99855.16;;;3.26;100.00
13420;BME280;6781;58.440;15.470;2023-01-15T01:55:13;99841.53;;;3.26;100.00
13420;BME280;6781;58.440;15.470;2023-01-15T01:57:40;99856.28;;;3.22;100.00
13420;BME280;6781;58.440;15.470;2023-01-15T02:00:09;99851.88;;;3.24;100.00
13420;BME280;6781;58.440;15.470;2023-01-15T02:02:38;99856.81;;;3.28;100.00
13420;BME280;6781;58.440;15.470;2023-01-15T02:05:07;99831.38;;;3.24;100.00
13420;BME280;6781;58.440;15.470;2023-01-15T02:07:34;99844.75;;;3.30;100.00
13420;BME280;6781;58.440;15.470;2023-01-15T02:10:01;99823.41;;;3.29;100.00
13420;BME280;6781;58.440;15.470;2023-01-15T02:12:29;99840.53;;;3.29;100.00
13420;BME280;6781;58.440;15.470;2023-01-15T02:14:58;99823.22;;;3.32;100.00
13420;BME280;6781;58.440;15.470;2023-01-15T02:17:32;99831.19;;;3.28;100.00
13420;BME280;6781;58.440;15.470;2023-01-15T02:20:09;99846.56;;;3.28;100.00
13420;BME280;6781;58.440;15.470;2023-01-15T02:22:42;99847.13;;;3.33;100.00
13420;BME280;6781;58.440;15.470;2023-01-15T02:25:17;99852.97;;;3.35;100.00
13420;BME280;6781;58.440;15.470;2023-01-15T02:27:48;99849.69;;;3.33;100.00
13420;BME280;6781;58.440;15.470;2023-01-15T02:30:18;99861.38;;;3.37;100.00
13420;BME280;6781;58.440;15.470;2023-01-15T02:32:50;99844.19;;;3.39;100.00
13420;BME280;6781;58.440;15.470;2023-01-15T02:35:20;99844.00;;;3.42;100.00
13420;BME280;6781;58.440;15.470;2023-01-15T02:37:49;99835.56;;;3.40;100.00
13420;BME280;6781;58.440;15.470;2023-01-15T02:40:17;99851.94;;;3.37;100.00
13420;BME280;6781;58.440;15.470;2023-01-15T02:42:44;99859.28;;;3.43;100.00
13420;BME280;6781;58.440;15.470;2023-01-15T02:45:14;99864.50;;;3.42;100.00
13420;BME280;6781;58.440;15.470;2023-01-15T02:47:41;99870.25;;;3.45;100.00
13420;BME280;6781;58.440;15.470;2023-01-15T02:50:11;99879.47;;;3.48;100.00
13420;BME280;6781;58.440;15.470;2023-01-15T02:52:40;99881.31;;;3.46;100.00
13420;BME280;6781;58.440;15.470;2023-01-15T02:55:10;99884.59;;;3.48;100.00
13420;BME280;6781;58.440;15.470;2023-01-15T02:57:38;99886.44;;;3.46;100.00
13420;BME280;6781;58.440;15.470;2023-01-15T03:00:08;99886.44;;;3.46;100.00
13420;BME280;6781;58.440;15.470;2023-01-15T03:02:39;99898.13;;;3.50;100.00
13420;BME280;6781;58.440;15.470;2023-01-15T03:07:43;99903.97;;;3.52;100.00
13420;BME280;6781;58.440;15.470;2023-01-15T03:10:14;99913.31;;;3.53;100.00
13420;BME280;6781;58.440;15.470;2023-01-15T03:12:43;99913.31;;;3.53;100.00
13420;BME280;6781;58.440;15.470;2023-01-15T03:15:34;99915.97;;;3.51;100.00
13420;BME280;6781;58.440;15.470;2023-01-15T03:18:22;99928.69;;;3.53;100.00
13420;BME280;6781;58.440;15.470;2023-01-15T03:20:51;99932.00;;;3.55;100.00
13420;BME280;6781;58.440;15.470;2023-01-15T03:23:22;99938.94;;;3.53;100.00
13420;BME280;6781;58.440;15.470;2023-01-15T03:25:49;99937.13;;;3.55;100.00
13420;BME280;6781;58.440;15.470;2023-01-15T03:28:18;99940.41;;;3.57;100.00
13420;BME280;6781;58.440;15.470;2023-01-15T03:30:46;99927.69;;;3.55;100.00
13420;BME280;6781;58.440;15.470;2023-01-15T03:33:13;99921.66;;;3.56;100.00
13420;BME280;6781;58.440;15.470;2023-01-15T03:35:46;99922.47;;;3.57;100.00
13420;BME280;6781;58.440;15.470;2023-01-15T03:38:13;99920.00;;;3.55;100.00
13420;BME280;6781;58.440;15.470;2023-01-15T03:40:42;99928.50;;;3.56;100.00
13420;BME280;6781;58.440;15.470;2023-01-15T03:43:12;99909.84;;;3.54;100.00
13420;BME280;6781;58.440;15.470;2023-01-15T03:45:57;99909.00;;;3.53;100.00
13420;BME280;6781;58.440;15.470;2023-01-15T03:48:27;99927.88;;;3.52;100.00
13420;BME280;6781;58.440;15.470;2023-01-15T03:51:03;99927.06;;;3.52;100.00
13420;BME280;6781;58.440;15.470;2023-01-15T03:53:35;99927.78;;;3.54;100.00
13420;BME280;6781;58.440;15.470;2023-01-15T03:56:07;99930.53;;;3.51;100.00
13420;BME280;6781;58.440;15.470;2023-01-15T03:58:38;99918.63;;;3.50;100.00
13420;BME280;6781;58.440;15.470;2023-01-15T04:01:08;99919.63;;;3.47;100.00
13420;BME280;6781;58.440;15.470;2023-01-15T04:03:36;99922.50;;;3.43;100.00
13420;BME280;6781;58.440;15.470;2023-01-15T04:06:05;99908.34;;;3.37;100.00
13420;BME280;6781;58.440;15.470;2023-01-15T04:08:32;99894.16;;;3.32;100.00
13420;BME280;6781;58.440;15.470;2023-01-15T04:11:01;99894.50;;;3.25;100.00
13420;BME280;6781;58.440;15.470;2023-01-15T04:13:28;99891.03;;;3.26;100.00
13420;BME280;6781;58.440;15.470;2023-01-15T04:15:55;99891.22;;;3.23;100.00
13420;BME280;6781;58.440;15.470;2023-01-15T04:18:21;99887.28;;;3.18;100.00
13420;BME280;6781;58.440;15.470;2023-01-15T04:20:49;99881.72;;;3.11;100.00
13420;BME280;6781;58.440;15.470;2023-01-15T04:23:17;99872.84;;;3.03;100.00
13420;BME280;6781;58.440;15.470;2023-01-15T04:25:44;99869.72;;;2.98;100.00
13420;BME280;6781;58.440;15.470;2023-01-15T04:28:11;99852.44;;;2.87;100.00
13420;BME280;6781;58.440;15.470;2023-01-15T04:30:38;99851.69;;;2.85;100.00
13420;BME280;6781;58.440;15.470;2023-01-15T04:33:07;99837.78;;;2.75;100.00
13420;BME280;6781;58.440;15.470;2023-01-15T04:35:34;99841.28;;;2.74;100.00
13420;BME280;6781;58.440;15.470;2023-01-15T04:38:01;99831.03;;;2.74;100.00
13420;BME280;6781;58.440;15.470;2023-01-15T04:40:29;99834.69;;;2.70;100.00
13420;BME280;6781;58.440;15.470;2023-01-15T04:43:13;99838.34;;;2.66;100.00
13420;BME280;6781;58.440;15.470;2023-01-15T04:45:57;99829.09;;;2.63;100.00
13420;BME280;6781;58.440;15.470;2023-01-15T04:48:24;99825.81;;;2.61;100.00
13420;BME280;6781;58.440;15.470;2023-01-15T04:50:51;99813.28;;;2.56;100.00
13420;BME280;6781;58.440;15.470;2023-01-15T04:53:18;99804.22;;;2.51;100.00
13420;BME280;6781;58.440;15.470;2023-01-15T04:55:46;99801.41;;;2.55;100.00
13420;BME280;6781;58.440;15.470;2023-01-15T04:58:12;99806.69;;;2.52;100.00
13420;BME280;6781;58.440;15.470;2023-01-15T05:00:39;99805.88;;;2.52;100.00
13420;BME280;6781;58.440;15.470;2023-01-15T05:03:06;99813.81;;;2.47;100.00
13420;BME280;6781;58.440;15.470;2023-01-15T05:05:32;99813.16;;;2.44;100.00
13420;BME280;6781;58.440;15.470;2023-01-15T05:07:59;99800.28;;;2.45;100.00
13420;BME280;6781;58.440;15.470;2023-01-15T05:10:26;99809.53;;;2.48;100.00
13420;BME280;6781;58.440;15.470;2023-01-15T05:12:54;99804.75;;;2.42;100.00
13420;BME280;6781;58.440;15.470;2023-01-15T05:15:21;99798.09;;;2.39;100.00
13420;BME280;6781;58.440;15.470;2023-01-15T05:17:47;99794.06;;;2.35;100.00
13420;BME280;6781;58.440;15.470;2023-01-15T05:20:14;99783.09;;;2.33;100.00
13420;BME280;6781;58.440;15.470;2023-01-15T05:22:41;99800.81;;;2.36;100.00
13420;BME280;6781;58.440;15.470;2023-01-15T05:25:15;99790.59;;;2.36;100.00
13420;BME280;6781;58.440;15.470;2023-01-15T05:27:42;99793.50;;;2.30;100.00
13420;BME280;6781;58.440;15.470;2023-01-15T05:30:11;99806.13;;;2.33;100.00
13420;BME280;6781;58.440;15.470;2023-01-15T05:32:38;99801.19;;;2.30;100.00
13420;BME280;6781;58.440;15.470;2023-01-15T05:35:05;99799.44;;;2.31;100.00
13420;BME280;6781;58.440;15.470;2023-01-15T05:37:32;99804.47;;;2.32;100.00
13420;BME280;6781;58.440;15.470;2023-01-15T05:39:59;99812.16;;;2.32;100.00
13420;BME280;6781;58.440;15.470;2023-01-15T05:42:25;99807.94;;;2.31;100.00
13420;BME280;6781;58.440;15.470;2023-01-15T05:44:53;99801.19;;;2.30;100.00
13420;BME280;6781;58.440;15.470;2023-01-15T05:47:21;99809.94;;;2.26;100.00
13420;BME280;6781;58.440;15.470;2023-01-15T05:49:48;99811.03;;;2.22;100.00
13420;BME280;6781;58.440;15.470;2023-01-15T05:52:15;99807.56;;;2.23;100.00
13420;BME280;6781;58.440;15.470;2023-01-15T05:54:41;99808.47;;;2.22;100.00
13420;BME280;6781;58.440;15.470;2023-01-15T05:57:09;99814.88;;;2.29;100.00
13420;BME280;6781;58.440;15.470;2023-01-15T05:59:37;99804.81;;;2.26;100.00
13420;BME280;6781;58.440;15.470;2023-01-15T06:02:03;99810.69;;;2.28;100.00
13420;BME280;6781;58.440;15.470;2023-01-15T06:04:32;99816.69;;;2.27;100.00
13420;BME280;6781;58.440;15.470;2023-01-15T06:06:59;99813.41;;;2.25;100.00
13420;BME280;6781;58.440;15.470;2023-01-15T06:09:26;99808.47;;;2.22;100.00
13420;BME280;6781;58.440;15.470;2023-01-15T06:11:54;99808.63;;;2.19;100.00
13420;BME280;6781;58.440;15.470;2023-01-15T06:14:21;99810.13;;;2.23;100.00
13420;BME280;6781;58.440;15.470;2023-01-15T06:16:48;99816.88;;;2.24;100.00
13420;BME280;6781;58.440;15.470;2023-01-15T06:19:15;99827.09;;;2.24;100.00
13420;BME280;6781;58.440;15.470;2023-01-15T06:21:43;99826.66;;;2.32;100.00
13420;BME280;6781;58.440;15.470;2023-01-15T06:24:10;99834.16;;;2.35;100.00
13420;BME280;6781;58.440;15.470;2023-01-15T06:26:36;99833.25;;;2.36;100.00
13420;BME280;6781;58.440;15.470;2023-01-15T06:29:03;99838.09;;;2.40;100.00
13420;BME280;6781;58.440;15.470;2023-01-15T06:31:30;99835.19;;;2.46;100.00
13420;BME280;6781;58.440;15.470;2023-01-15T06:33:57;99835.75;;;2.51;100.00
13420;BME280;6781;58.440;15.470;2023-01-15T06:36:24;99833.94;;;2.53;100.00
13420;BME280;6781;58.440;15.470;2023-01-15T06:38:53;99824.78;;;2.49;100.00
13420;BME280;6781;58.440;15.470;2023-01-15T06:41:21;99818.75;;;2.50;100.00
13420;BME280;6781;58.440;15.470;2023-01-15T06:44:06;99825.13;;;2.43;100.00
13420;BME280;6781;58.440;15.470;2023-01-15T06:46:53;99821.13;;;2.39;100.00
13420;BME280;6781;58.440;15.470;2023-01-15T06:49:37;99810.88;;;2.39;100.00
13420;BME280;6781;58.440;15.470;2023-01-15T06:52:04;99817.19;;;2.48;100.00
13420;BME280;6781;58.440;15.470;2023-01-15T06:54:32;99830.47;;;2.54;100.00
13420;BME280;6781;58.440;15.470;2023-01-15T06:56:59;99824.34;;;2.57;100.00
13420;BME280;6781;58.440;15.470;2023-01-15T06:59:26;99833.56;;;2.59;100.00
13420;BME280;6781;58.440;15.470;2023-01-15T07:01:53;99832.94;;;2.56;100.00
13420;BME280;6781;58.440;15.470;2023-01-15T07:04:20;99823.88;;;2.50;100.00
13420;BME280;6781;58.440;15.470;2023-01-15T07:06:46;99819.28;;;2.41;100.00
13420;BME280;6781;58.440;15.470;2023-01-15T07:09:13;99807.41;;;2.40;100.00
13420;BME280;6781;58.440;15.470;2023-01-15T07:11:41;99786.38;;;2.35;100.00
13420;BME280;6781;58.440;15.470;2023-01-15T07:14:15;99783.91;;;2.34;100.00
13420;BME280;6781;58.440;15.470;2023-01-15T07:16:41;99782.38;;;2.31;100.00
13420;BME280;6781;58.440;15.470;2023-01-15T07:19:08;99781.53;;;2.31;100.00
13420;BME280;6781;58.440;15.470;2023-01-15T07:21:35;99774.88;;;2.28;100.00
13420;BME280;6781;58.440;15.470;2023-01-15T07:24:02;99780.34;;;2.22;100.00
13420;BME280;6781;58.440;15.470;2023-01-15T07:26:29;99781.97;;;2.23;100.00
13420;BME280;6781;58.440;15.470;2023-01-15T07:28:57;99777.78;;;2.22;100.00
13420;BME280;6781;58.440;15.470;2023-01-15T07:31:24;99766.81;;;2.20;100.00
13420;BME280;6781;58.440;15.470;2023-01-15T07:33:50;99774.66;;;2.17;100.00
13420;BME280;6781;58.440;15.470;2023-01-15T07:36:17;99763.59;;;2.16;100.00
13420;BME280;6781;58.440;15.470;2023-01-15T07:38:44;99762.59;;;2.19;100.00
13420;BME280;6781;58.440;15.470;2023-01-15T07:41:10;99759.31;;;2.17;100.00
13420;BME280;6781;58.440;15.470;2023-01-15T07:43:56;99759.31;;;2.17;100.00
13420;BME280;6781;58.440;15.470;2023-01-15T07:46:40;99753.09;;;2.07;100.00
13420;BME280;6781;58.440;15.470;2023-01-15T07:49:24;99755.47;;;2.10;100.00
13420;BME280;6781;58.440;15.470;2023-01-15T07:52:08;99754.56;;;2.11;100.00
13420;BME280;6781;58.440;15.470;2023-01-15T07:54:35;99760.50;;;2.11;100.00
13420;BME280;6781;58.440;15.470;2023-01-15T07:57:02;99756.03;;;2.15;100.00
13420;BME280;6781;58.440;15.470;2023-01-15T07:59:30;99757.50;;;2.19;100.00
13420;BME280;6781;58.440;15.470;2023-01-15T08:01:57;99759.97;;;2.20;100.00
13420;BME280;6781;58.440;15.470;2023-01-15T08:04:24;99751.66;;;2.17;100.00
13420;BME280;6781;58.440;15.470;2023-01-15T08:06:50;99749.09;;;2.17;100.00
13420;BME280;6781;58.440;15.470;2023-01-15T08:09:17;99748.34;;;2.15;100.00
13420;BME280;6781;58.440;15.470;2023-01-15T08:11:44;99746.78;;;2.12;100.00
13420;BME280;6781;58.440;15.470;2023-01-15T08:14:28;99744.97;;;2.14;100.00
13420;BME280;6781;58.440;15.470;2023-01-15T08:28:39;99749.09;;;2.17;100.00
13420;BME280;6781;58.440;15.470;2023-01-15T08:31:06;99750.91;;;2.15;100.00
13420;BME280;6781;58.440;15.470;2023-01-15T08:33:33;99747.53;;;2.14;100.00
13420;BME280;6781;58.440;15.470;2023-01-15T08:36:00;99749.25;;;2.14;100.00
13420;BME280;6781;58.440;15.470;2023-01-15T08:38:27;99760.69;;;2.22;100.00
13420;BME280;6781;58.440;15.470;2023-01-15T08:40:54;99758.59;;;2.29;100.00
13420;BME280;6781;58.440;15.470;2023-01-15T08:43:24;99759.06;;;2.36;100.00
13420;BME280;6781;58.440;15.470;2023-01-15T08:45:54;99760.53;;;2.40;100.00
13420;BME280;6781;58.440;15.470;2023-01-15T08:48:22;99767.94;;;2.44;100.00
13420;BME280;6781;58.440;15.470;2023-01-15T08:50:49;99769.41;;;2.48;100.00
13420;BME280;6781;58.440;15.470;2023-01-15T08:53:15;99781.94;;;2.53;100.00
13420;BME280;6781;58.440;15.470;2023-01-15T08:55:43;99777.63;;;2.53;100.00
13420;BME280;6781;58.440;15.470;2023-01-15T08:58:10;99773.81;;;2.60;100.00
13420;BME280;6781;58.440;15.470;2023-01-15T09:00:36;99775.28;;;2.65;100.00
13420;BME280;6781;58.440;15.470;2023-01-15T09:03:04;99774.91;;;2.71;100.00
13420;BME280;6781;58.440;15.470;2023-01-15T09:05:31;99772.88;;;2.76;100.00
13420;BME280;6781;58.440;15.470;2023-01-15T09:07:58;99778.47;;;2.82;100.00
13420;BME280;6781;58.440;15.470;2023-01-15T09:10:25;99778.56;;;2.81;100.00
13420;BME280;6781;58.440;15.470;2023-01-15T09:12:51;99783.31;;;2.87;100.00
13420;BME280;6781;58.440;15.470;2023-01-15T09:15:18;99783.84;;;2.92;100.00
13420;BME280;6781;58.440;15.470;2023-01-15T09:17:45;99780.19;;;2.96;100.00
13420;BME280;6781;58.440;15.470;2023-01-15T09:20:13;99775.63;;;3.01;100.00
13420;BME280;6781;58.440;15.470;2023-01-15T09:22:40;99782.94;;;3.07;100.00
13420;BME280;6781;58.440;15.470;2023-01-15T09:25:07;99774.13;;;3.11;100.00
13420;BME280;6781;58.440;15.470;2023-01-15T09:27:34;99769.56;;;3.16;100.00
13420;BME280;6781;58.440;15.470;2023-01-15T09:30:02;99762.41;;;3.21;100.00
13420;BME280;6781;58.440;15.470;2023-01-15T09:32:29;99756.19;;;3.25;100.00
13420;BME280;6781;58.440;15.470;2023-01-15T09:34:57;99759.28;;;3.31;100.00
13420;BME280;6781;58.440;15.470;2023-01-15T09:37:25;99747.00;;;3.36;100.00
13420;BME280;6781;58.440;15.470;2023-01-15T09:39:52;99745.28;;;3.49;100.00
13420;BME280;6781;58.440;15.470;2023-01-15T09:42:24;99737.28;;;3.53;100.00
13420;BME280;6781;58.440;15.470;2023-01-15T09:45:00;99733.72;;;3.56;100.00
13420;BME280;6781;58.440;15.470;2023-01-15T09:47:33;99735.16;;;3.60;100.00
13420;BME280;6781;58.440;15.470;2023-01-15T09:50:10;99714.66;;;3.60;100.00
13420;BME280;6781;58.440;15.470;2023-01-15T09:52:48;99712.63;;;3.65;100.00
13420;BME280;6781;58.440;15.470;2023-01-15T09:55:19;99702.38;;;3.65;100.00
13420;BME280;6781;58.440;15.470;2023-01-15T09:57:49;99695.19;;;3.70;100.00
13420;BME280;6781;58.440;15.470;2023-01-15T10:00:19;99680.53;;;3.72;100.00
13420;BME280;6781;58.440;15.470;2023-01-15T10:02:46;99671.19;;;3.71;100.00
13420;BME280;6781;58.440;15.470;2023-01-15T10:05:16;99650.50;;;3.74;100.00
13420;BME280;6781;58.440;15.470;2023-01-15T10:07:48;99637.66;;;3.74;100.00
13420;BME280;6781;58.440;15.470;2023-01-15T10:10:17;99628.84;;;3.78;100.00
13420;BME280;6781;58.440;15.470;2023-01-15T10:12:47;99612.75;;;3.76;100.00
13420;BME280;6781;58.440;15.470;2023-01-15T10:15:17;99602.50;;;3.76;100.00
13420;BME280;6781;58.440;15.470;2023-01-15T10:17:46;99582.00;;;3.76;100.00
13420;BME280;6781;58.440;15.470;2023-01-15T10:20:14;99567.81;;;3.83;100.00
13420;BME280;6781;58.440;15.470;2023-01-15T10:25:40;99539.94;;;3.79;100.00
13420;BME280;6781;58.440;15.470;2023-01-15T10:28:12;99500.16;;;3.73;100.00
13420;BME280;6781;58.440;15.470;2023-01-15T10:30:43;99487.13;;;3.76;100.00
13420;BME280;6781;58.440;15.470;2023-01-15T10:33:15;99476.59;;;3.68;100.00
13420;BME280;6781;58.440;15.470;2023-01-15T10:35:46;99451.66;;;3.70;100.00
13420;BME280;6781;58.440;15.470;2023-01-15T10:38:17;99444.97;;;3.80;100.00
13420;BME280;6781;58.440;15.470;2023-01-15T10:41:00;99440.03;;;3.90;100.00
13420;BME280;6781;58.440;15.470;2023-01-15T10:43:34;99426.88;;;3.95;100.00
13420;BME280;6781;58.440;15.470;2023-01-15T10:46:09;99410.63;;;4.07;100.00
13420;BME280;6781;58.440;15.470;2023-01-15T10:48:37;99397.34;;;4.13;100.00
13420;BME280;6781;58.440;15.470;2023-01-15T10:51:11;99364.88;;;4.01;100.00
13420;BME280;6781;58.440;15.470;2023-01-15T10:53:40;99334.34;;;3.98;100.00
13420;BME280;6781;58.440;15.470;2023-01-15T10:56:11;99329.91;;;4.00;100.00
13420;BME280;6781;58.440;15.470;2023-01-15T10:58:40;99305.19;;;3.99;100.00
13420;BME280;6781;58.440;15.470;2023-01-15T11:01:11;99285.50;;;3.99;100.00
13420;BME280;6781;58.440;15.470;2023-01-15T11:03:39;99261.72;;;3.97;100.00
13420;BME280;6781;58.440;15.470;2023-01-15T11:06:10;99254.63;;;4.01;100.00
13420;BME280;6781;58.440;15.470;2023-01-15T11:08:38;99242.72;;;4.00;100.00
13420;BME280;6781;58.440;15.470;2023-01-15T11:11:11;99204.03;;;4.03;100.00
13420;BME280;6781;58.440;15.470;2023-01-15T11:13:50;99182.09;;;3.99;100.00
13420;BME280;6781;58.440;15.470;2023-01-15T11:16:34;99154.47;;;3.91;100.00
13420;BME280;6781;58.440;15.470;2023-01-15T11:19:23;99129.19;;;3.98;100.00
13420;BME280;6781;58.440;15.470;2023-01-15T11:22:04;99133.38;;;4.10;100.00
13420;BME280;6781;58.440;15.470;2023-01-15T11:24:34;99119.84;;;4.19;100.00
13420;BME280;6781;58.440;15.470;2023-01-15T11:27:03;99102.47;;;4.22;100.00
13420;BME280;6781;58.440;15.470;2023-01-15T11:29:33;99092.78;;;4.26;100.00
13420;BME280;6781;58.440;15.470;2023-01-15T11:32:01;99065.28;;;4.28;100.00
13420;BME280;6781;58.440;15.470;2023-01-15T11:34:28;99057.56;;;4.28;100.00
13420;BME280;6781;58.440;15.470;2023-01-15T11:37:04;99027.97;;;4.24;100.00
13420;BME280;6781;58.440;15.470;2023-01-15T11:39:31;99029.81;;;4.33;100.00
13420;BME280;6781;58.440;15.470;2023-01-15T11:41:58;99010.06;;;4.45;100.00
13420;BME280;6781;58.440;15.470;2023-01-15T11:47:54;98956.63;;;4.50;100.00
13420;BME280;6781;58.440;15.470;2023-01-15T11:50:39;98924.63;;;4.33;100.00
13420;BME280;6781;58.440;15.470;2023-01-15T11:53:13;98895.31;;;4.15;100.00
13420;BME280;6781;58.440;15.470;2023-01-15T11:55:48;98864.19;;;4.08;100.00
13420;BME280;6781;58.440;15.470;2023-01-15T11:58:16;98853.16;;;3.97;100.00
13420;BME280;6781;58.440;15.470;2023-01-15T12:00:42;98848.97;;;3.96;100.00
13420;BME280;6781;58.440;15.470;2023-01-15T12:03:16;98828.59;;;3.94;100.00
13420;BME280;6781;58.440;15.470;2023-01-15T12:05:44;98830.91;;;3.97;100.00
13420;BME280;6781;58.440;15.470;2023-01-15T12:08:15;98830.09;;;3.97;100.00
13420;BME280;6781;58.440;15.470;2023-01-15T12:10:45;98812.97;;;3.97;100.00
13420;BME280;6781;58.440;15.470;2023-01-15T12:13:33;98811.22;;;3.98;100.00
13420;BME280;6781;58.440;15.470;2023-01-15T12:16:05;98805.84;;;4.01;100.00
13420;BME280;6781;58.440;15.470;2023-01-15T12:18:44;98809.97;;;4.13;100.00
13420;BME280;6781;58.440;15.470;2023-01-15T12:21:25;98802.97;;;4.15;100.00
13420;BME280;6781;58.440;15.470;2023-01-15T12:26:48;98760.06;;;4.17;100.00
13420;BME280;6781;58.440;15.470;2023-01-15T12:29:19;98744.53;;;4.18;100.00
13420;BME280;6781;58.440;15.470;2023-01-15T12:31:48;98719.63;;;4.30;100.00
13420;BME280;6781;58.440;15.470;2023-01-15T12:34:20;98697.63;;;4.37;100.00
13420;BME280;6781;58.440;15.470;2023-01-15T12:36:50;98683.19;;;4.36;100.00
13420;BME280;6781;58.440;15.470;2023-01-15T12:39:19;98639.41;;;4.28;100.00
13420;BME280;6781;58.440;15.470;2023-01-15T12:41:49;98602.25;;;4.22;100.00
13420;BME280;6781;58.440;15.470;2023-01-15T12:44:36;98575.38;;;4.17;100.00
13420;BME280;6781;58.440;15.470;2023-01-15T12:47:24;98554.03;;;4.07;100.00
13420;BME280;6781;58.440;15.470;2023-01-15T12:49:59;98529.31;;;4.06;100.00
13420;BME280;6781;58.440;15.470;2023-01-15T12:52:28;98512.97;;;3.97;100.00
13420;BME280;6781;58.440;15.470;2023-01-15T12:55:00;98505.66;;;3.92;100.00
13420;BME280;6781;58.440;15.470;2023-01-15T12:57:35;98494.06;;;3.88;100.00
13420;BME280;6781;58.440;15.470;2023-01-15T13:00:03;98473.56;;;3.88;100.00
13420;BME280;6781;58.440;15.470;2023-01-15T13:02:34;98449.53;;;3.89;100.00
13420;BME280;6781;58.440;15.470;2023-01-15T13:05:06;98436.56;;;3.81;100.00
13420;BME280;6781;58.440;15.470;2023-01-15T13:07:42;98423.34;;;3.76;100.00
13420;BME280;6781;58.440;15.470;2023-01-15T13:10:26;98415.22;;;3.71;100.00
13420;BME280;6781;58.440;15.470;2023-01-15T13:12:57;98410.91;;;3.72;100.00
13420;BME280;6781;58.440;15.470;2023-01-15T13:15:28;98402.56;;;3.79;100.00
13420;BME280;6781;58.440;15.470;2023-01-15T13:18:02;98398.00;;;3.83;100.00
13420;BME280;6781;58.440;15.470;2023-01-15T13:20:46;98386.94;;;3.82;100.00
13420;BME280;6781;58.440;15.470;2023-01-15T13:23:29;98369.94;;;3.81;100.00
13420;BME280;6781;58.440;15.470;2023-01-15T13:26:04;98337.28;;;3.74;100.00
13420;BME280;6781;58.440;15.470;2023-01-15T13:28:40;98332.41;;;3.71;100.00
13420;BME280;6781;58.440;15.470;2023-01-15T13:31:11;98316.78;;;3.64;100.00
13420;BME280;6781;58.440;15.470;2023-01-15T13:33:47;98313.00;;;3.68;100.00
13420;BME280;6781;58.440;15.470;2023-01-15T13:36:21;98299.50;;;3.56;100.00
13420;BME280;6781;58.440;15.470;2023-01-15T13:38:57;98303.66;;;3.48;100.00